sensor_id;sensor_type;location;lat;lon;timestamp;P1;durP1;ratioP1;P2;durP2;ratioP2
22270;SDS011;11304;53.520;10.104;2022-11-20T00:00:37;5.57;;;3.00;;
22270;SDS011;11304;53.520;10.104;2022-11-20T00:03:03;4.93;;;3.10;;
22270;SDS011;11304;53.520;10.104;2022-11-20T00:05:31;6.88;;;2.88;;
22270;SDS011;11304;53.520;10.104;2022-11-20T00:07:59;6.25;;;2.90;;
22270;SDS011;11304;53.520;10.104;2022-11-20T00:10:25;8.07;;;3.45;;
22270;SDS011;11304;53.520;10.104;2022-11-20T00:12:51;4.35;;;2.60;;
22270;SDS011;11304;53.520;10.104;2022-11-20T00:15:17;6.40;;;3.25;;
22270;SDS011;11304;53.520;10.104;2022-11-20T00:17:43;4.97;;;2.78;;
22270;SDS011;11304;53.520;10.104;2022-11-20T00:20:10;4.80;;;3.10;;
22270;SDS011;11304;53.520;10.104;2022-11-20T00:22:36;4.35;;;3.00;;
22270;SDS011;11304;53.520;10.104;2022-11-20T00:25:02;5.65;;;3.15;;
22270;SDS011;11304;53.520;10.104;2022-11-20T00:27:28;4.55;;;3.40;;
22270;SDS011;11304;53.520;10.104;2022-11-20T00:29:54;8.52;;;3.22;;
22270;SDS011;11304;53.520;10.104;2022-11-20T00:32:20;8.57;;;3.30;;
22270;SDS011;11304;53.520;10.104;2022-11-20T00:34:46;4.97;;;2.80;;
22270;SDS011;11304;53.520;10.104;2022-11-20T00:37:13;5.68;;;2.92;;
22270;SDS011;11304;53.520;10.104;2022-11-20T00:39:39;6.80;;;3.10;;
22270;SDS011;11304;53.520;10.104;2022-11-20T00:42:05;5.47;;;3.10;;
22270;SDS011;11304;53.520;10.104;2022-11-20T00:44:31;5.35;;;2.90;;
22270;SDS011;11304;53.520;10.104;2022-11-20T00:46:57;4.63;;;3.08;;
22270;SDS011;11304;53.520;10.104;2022-11-20T00:49:23;7.40;;;3.42;;
22270;SDS011;11304;53.520;10.104;2022-11-20T00:51:49;4.00;;;2.78;;
22270;SDS011;11304;53.520;10.104;2022-11-20T00:54:15;5.30;;;3.50;;
22270;SDS011;11304;53.520;10.104;2022-11-20T00:56:41;6.10;;;3.42;;
22270;SDS011;11304;53.520;10.104;2022-11-20T00:59:08;7.97;;;4.07;;
22270;SDS011;11304;53.520;10.104;2022-11-20T01:01:36;4.93;;;3.55;;
22270;SDS011;11304;53.520;10.104;2022-11-20T01:04:02;6.32;;;3.90;;
22270;SDS011;11304;53.520;10.104;2022-11-20T01:06:30;6.30;;;4.05;;
22270;SDS011;11304;53.520;10.104;2022-11-20T01:08:57;7.65;;;4.00;;
22270;SDS011;11304;53.520;10.104;2022-11-20T01:11:27;6.55;;;4.00;;
22270;SDS011;11304;53.520;10.104;2022-11-20T01:13:54;7.05;;;4.10;;
22270;SDS011;11304;53.520;10.104;2022-11-20T01:16:21;7.10;;;4.30;;
22270;SDS011;11304;53.520;10.104;2022-11-20T01:18:49;6.35;;;3.90;;
22270;SDS011;11304;53.520;10.104;2022-11-20T01:21:25;8.13;;;3.67;;
22270;SDS011;11304;53.520;10.104;2022-11-20T01:23:52;6.22;;;4.00;;
22270;SDS011;11304;53.520;10.104;2022-11-20T01:26:19;10.20;;;3.88;;
22270;SDS011;11304;53.520;10.104;2022-11-20T01:28:46;6.95;;;4.32;;
22270;SDS011;11304;53.520;10.104;2022-11-20T01:31:19;6.35;;;4.35;;
22270;SDS011;11304;53.520;10.104;2022-11-20T01:33:46;7.53;;;4.63;;
22270;SDS011;11304;53.520;10.104;2022-11-20T01:36:13;7.97;;;5.05;;
22270;SDS011;11304;53.520;10.104;2022-11-20T01:38:40;6.40;;;4.25;;
22270;SDS011;11304;53.520;10.104;2022-11-20T01:41:06;5.88;;;4.45;;
22270;SDS011;11304;53.520;10.104;2022-11-20T01:43:32;7.45;;;4.88;;
22270;SDS011;11304;53.520;10.104;2022-11-20T01:46:00;6.70;;;4.47;;
22270;SDS011;11304;53.520;10.104;2022-11-20T01:48:32;7.60;;;4.32;;
22270;SDS011;11304;53.520;10.104;2022-11-20T01:50:59;9.10;;;4.53;;
22270;SDS011;11304;53.520;10.104;2022-11-20T01:53:28;6.05;;;4.38;;
22270;SDS011;11304;53.520;10.104;2022-11-20T01:55:56;6.65;;;4.63;;
22270;SDS011;11304;53.520;10.104;2022-11-20T01:58:25;7.30;;;4.38;;
22270;SDS011;11304;53.520;10.104;2022-11-20T02:00:53;6.20;;;4.22;;
22270;SDS011;11304;53.520;10.104;2022-11-20T02:03:19;6.90;;;4.47;;
22270;SDS011;11304;53.520;10.104;2022-11-20T02:05:55;8.43;;;4.70;;
22270;SDS011;11304;53.520;10.104;2022-11-20T02:08:22;8.38;;;4.22;;
22270;SDS011;11304;53.520;10.104;2022-11-20T02:10:49;7.00;;;4.43;;
22270;SDS011;11304;53.520;10.104;2022-11-20T02:13:15;6.93;;;4.47;;
22270;SDS011;11304;53.520;10.104;2022-11-20T02:16:00;6.78;;;4.43;;
22270;SDS011;11304;53.520;10.104;2022-11-20T02:18:26;7.13;;;4.82;;
22270;SDS011;11304;53.520;10.104;2022-11-20T02:20:54;8.25;;;5.07;;
22270;SDS011;11304;53.520;10.104;2022-11-20T02:23:26;6.20;;;4.22;;
22270;SDS011;11304;53.520;10.104;2022-11-20T02:25:54;8.15;;;4.57;;
22270;SDS011;11304;53.520;10.104;2022-11-20T02:28:21;6.40;;;4.50;;
22270;SDS011;11304;53.520;10.104;2022-11-20T02:30:47;6.72;;;4.35;;
22270;SDS011;11304;53.520;10.104;2022-11-20T02:33:13;9.05;;;4.10;;
22270;SDS011;11304;53.520;10.104;2022-11-20T02:35:41;8.60;;;4.70;;
22270;SDS011;11304;53.520;10.104;2022-11-20T02:38:07;5.97;;;4.18;;
22270;SDS011;11304;53.520;10.104;2022-11-20T02:40:34;5.50;;;4.13;;
22270;SDS011;11304;53.520;10.104;2022-11-20T02:43:00;7.20;;;4.13;;
22270;SDS011;11304;53.520;10.104;2022-11-20T02:45:26;7.57;;;4.35;;
22270;SDS011;11304;53.520;10.104;2022-11-20T02:47:52;7.53;;;4.00;;
22270;SDS011;11304;53.520;10.104;2022-11-20T02:50:18;8.27;;;3.90;;
22270;SDS011;11304;53.520;10.104;2022-11-20T02:52:44;5.28;;;4.00;;
22270;SDS011;11304;53.520;10.104;2022-11-20T02:55:11;9.43;;;4.75;;
22270;SDS011;11304;53.520;10.104;2022-11-20T02:57:37;6.65;;;4.38;;
22270;SDS011;11304;53.520;10.104;2022-11-20T03:00:03;8.02;;;4.50;;
22270;SDS011;11304;53.520;10.104;2022-11-20T03:02:30;6.68;;;4.72;;
22270;SDS011;11304;53.520;10.104;2022-11-20T03:04:56;7.20;;;4.32;;
22270;SDS011;11304;53.520;10.104;2022-11-20T03:07:22;7.65;;;5.05;;
22270;SDS011;11304;53.520;10.104;2022-11-20T03:09:48;8.40;;;4.88;;
22270;SDS011;11304;53.520;10.104;2022-11-20T03:12:14;7.43;;;4.47;;
22270;SDS011;11304;53.520;10.104;2022-11-20T03:14:40;6.68;;;4.57;;
22270;SDS011;11304;53.520;10.104;2022-11-20T03:17:06;7.55;;;4.55;;
22270;SDS011;11304;53.520;10.104;2022-11-20T03:19:33;6.38;;;4.45;;
22270;SDS011;11304;53.520;10.104;2022-11-20T03:21:59;7.60;;;4.78;;
22270;SDS011;11304;53.520;10.104;2022-11-20T03:24:25;7.07;;;4.40;;
22270;SDS011;11304;53.520;10.104;2022-11-20T03:26:52;6.90;;;4.70;;
22270;SDS011;11304;53.520;10.104;2022-11-20T03:29:18;9.10;;;5.05;;
22270;SDS011;11304;53.520;10.104;2022-11-20T03:31:44;6.30;;;4.47;;
22270;SDS011;11304;53.520;10.104;2022-11-20T03:34:10;8.13;;;4.40;;
22270;SDS011;11304;53.520;10.104;2022-11-20T03:36:37;7.13;;;4.68;;
22270;SDS011;11304;53.520;10.104;2022-11-20T03:39:03;8.13;;;4.90;;
22270;SDS011;11304;53.520;10.104;2022-11-20T03:41:30;7.25;;;4.32;;
22270;SDS011;11304;53.520;10.104;2022-11-20T03:43:58;8.68;;;4.40;;
22270;SDS011;11304;53.520;10.104;2022-11-20T03:46:24;8.30;;;4.77;;
22270;SDS011;11304;53.520;10.104;2022-11-20T03:48:51;7.28;;;4.50;;
22270;SDS011;11304;53.520;10.104;2022-11-20T03:53:44;9.07;;;4.35;;
22270;SDS011;11304;53.520;10.104;2022-11-20T03:56:10;7.38;;;4.70;;
22270;SDS011;11304;53.520;10.104;2022-11-20T03:58:37;7.55;;;4.90;;
22270;SDS011;11304;53.520;10.104;2022-11-20T04:01:08;8.07;;;4.55;;
22270;SDS011;11304;53.520;10.104;2022-11-20T04:03:35;6.95;;;4.47;;
22270;SDS011;11304;53.520;10.104;2022-11-20T04:06:02;6.80;;;4.93;;
22270;SDS011;11304;53.520;10.104;2022-11-20T04:08:29;7.45;;;4.63;;
22270;SDS011;11304;53.520;10.104;2022-11-20T04:10:55;6.90;;;4.75;;
22270;SDS011;11304;53.520;10.104;2022-11-20T04:13:21;12.95;;;4.78;;
22270;SDS011;11304;53.520;10.104;2022-11-20T04:15:47;8.38;;;4.93;;
22270;SDS011;11304;53.520;10.104;2022-11-20T04:18:13;7.70;;;5.03;;
22270;SDS011;11304;53.520;10.104;2022-11-20T04:20:39;7.13;;;4.95;;
22270;SDS011;11304;53.520;10.104;2022-11-20T04:23:06;7.43;;;4.32;;
22270;SDS011;11304;53.520;10.104;2022-11-20T04:25:32;8.55;;;5.00;;
22270;SDS011;11304;53.520;10.104;2022-11-20T04:27:58;6.72;;;4.25;;
22270;SDS011;11304;53.520;10.104;2022-11-20T04:30:24;9.25;;;4.50;;
22270;SDS011;11304;53.520;10.104;2022-11-20T04:32:50;6.78;;;4.40;;
22270;SDS011;11304;53.520;10.104;2022-11-20T04:35:17;6.90;;;4.10;;
22270;SDS011;11304;53.520;10.104;2022-11-20T04:37:43;6.45;;;4.15;;
22270;SDS011;11304;53.520;10.104;2022-11-20T04:40:10;6.88;;;4.40;;
22270;SDS011;11304;53.520;10.104;2022-11-20T04:42:36;7.40;;;4.20;;
22270;SDS011;11304;53.520;10.104;2022-11-20T04:45:02;6.97;;;4.28;;
22270;SDS011;11304;53.520;10.104;2022-11-20T04:47:28;7.85;;;4.03;;
22270;SDS011;11304;53.520;10.104;2022-11-20T04:49:54;8.88;;;4.25;;
22270;SDS011;11304;53.520;10.104;2022-11-20T04:52:20;4.88;;;3.72;;
22270;SDS011;11304;53.520;10.104;2022-11-20T04:54:46;6.20;;;4.25;;
22270;SDS011;11304;53.520;10.104;2022-11-20T04:57:13;6.50;;;4.18;;
22270;SDS011;11304;53.520;10.104;2022-11-20T04:59:39;6.45;;;5.10;;
22270;SDS011;11304;53.520;10.104;2022-11-20T05:02:05;5.80;;;4.00;;
22270;SDS011;11304;53.520;10.104;2022-11-20T05:04:31;7.05;;;4.18;;
22270;SDS011;11304;53.520;10.104;2022-11-20T05:06:57;6.90;;;4.75;;
22270;SDS011;11304;53.520;10.104;2022-11-20T05:09:23;6.88;;;4.40;;
22270;SDS011;11304;53.520;10.104;2022-11-20T05:11:49;8.27;;;4.53;;
22270;SDS011;11304;53.520;10.104;2022-11-20T05:14:15;6.55;;;4.47;;
22270;SDS011;11304;53.520;10.104;2022-11-20T05:16:41;6.28;;;4.88;;
22270;SDS011;11304;53.520;10.104;2022-11-20T05:19:08;5.72;;;4.05;;
22270;SDS011;11304;53.520;10.104;2022-11-20T05:21:34;5.30;;;4.07;;
22270;SDS011;11304;53.520;10.104;2022-11-20T05:24:00;7.63;;;4.30;;
22270;SDS011;11304;53.520;10.104;2022-11-20T05:26:26;8.02;;;4.05;;
22270;SDS011;11304;53.520;10.104;2022-11-20T05:28:52;6.05;;;4.45;;
22270;SDS011;11304;53.520;10.104;2022-11-20T05:31:19;6.88;;;3.80;;
22270;SDS011;11304;53.520;10.104;2022-11-20T05:33:45;6.60;;;4.35;;
22270;SDS011;11304;53.520;10.104;2022-11-20T05:36:12;6.50;;;4.40;;
22270;SDS011;11304;53.520;10.104;2022-11-20T05:38:39;7.28;;;4.35;;
22270;SDS011;11304;53.520;10.104;2022-11-20T05:41:24;6.20;;;4.43;;
22270;SDS011;11304;53.520;10.104;2022-11-20T05:43:50;6.60;;;4.68;;
22270;SDS011;11304;53.520;10.104;2022-11-20T05:46:19;8.68;;;4.80;;
22270;SDS011;11304;53.520;10.104;2022-11-20T05:48:45;8.95;;;5.10;;
22270;SDS011;11304;53.520;10.104;2022-11-20T05:51:13;9.40;;;5.03;;
22270;SDS011;11304;53.520;10.104;2022-11-20T05:53:39;8.45;;;4.40;;
22270;SDS011;11304;53.520;10.104;2022-11-20T05:58:32;8.15;;;5.22;;
22270;SDS011;11304;53.520;10.104;2022-11-20T06:03:30;6.57;;;4.65;;
22270;SDS011;11304;53.520;10.104;2022-11-20T06:05:58;7.55;;;5.28;;
22270;SDS011;11304;53.520;10.104;2022-11-20T06:08:24;11.30;;;5.10;;
22270;SDS011;11304;53.520;10.104;2022-11-20T06:10:50;8.98;;;5.45;;
22270;SDS011;11304;53.520;10.104;2022-11-20T06:13:16;9.25;;;5.47;;
22270;SDS011;11304;53.520;10.104;2022-11-20T06:15:47;6.80;;;5.10;;
22270;SDS011;11304;53.520;10.104;2022-11-20T06:18:13;10.45;;;6.00;;
22270;SDS011;11304;53.520;10.104;2022-11-20T06:20:39;9.63;;;5.72;;
22270;SDS011;11304;53.520;10.104;2022-11-20T06:23:06;10.60;;;6.50;;
22270;SDS011;11304;53.520;10.104;2022-11-20T06:25:32;11.68;;;6.43;;
22270;SDS011;11304;53.520;10.104;2022-11-20T06:27:58;10.35;;;6.47;;
22270;SDS011;11304;53.520;10.104;2022-11-20T06:30:24;9.75;;;6.00;;
22270;SDS011;11304;53.520;10.104;2022-11-20T06:32:50;9.57;;;6.35;;
22270;SDS011;11304;53.520;10.104;2022-11-20T06:35:16;8.50;;;5.85;;
22270;SDS011;11304;53.520;10.104;2022-11-20T06:37:42;11.25;;;5.88;;
22270;SDS011;11304;53.520;10.104;2022-11-20T06:40:08;8.57;;;5.95;;
22270;SDS011;11304;53.520;10.104;2022-11-20T06:42:35;9.07;;;5.93;;
22270;SDS011;11304;53.520;10.104;2022-11-20T06:45:01;9.90;;;5.72;;
22270;SDS011;11304;53.520;10.104;2022-11-20T06:47:27;11.18;;;6.05;;
22270;SDS011;11304;53.520;10.104;2022-11-20T06:49:53;7.47;;;6.00;;
22270;SDS011;11304;53.520;10.104;2022-11-20T06:52:19;11.55;;;7.63;;
22270;SDS011;11304;53.520;10.104;2022-11-20T06:54:45;11.57;;;7.13;;
22270;SDS011;11304;53.520;10.104;2022-11-20T06:57:11;12.63;;;7.38;;
22270;SDS011;11304;53.520;10.104;2022-11-20T06:59:37;12.27;;;8.18;;
22270;SDS011;11304;53.520;10.104;2022-11-20T07:02:03;12.00;;;7.82;;
22270;SDS011;11304;53.520;10.104;2022-11-20T07:04:30;11.10;;;8.05;;
22270;SDS011;11304;53.520;10.104;2022-11-20T07:06:56;12.23;;;7.28;;
22270;SDS011;11304;53.520;10.104;2022-11-20T07:09:22;14.18;;;7.40;;
22270;SDS011;11304;53.520;10.104;2022-11-20T07:11:48;11.13;;;7.65;;
22270;SDS011;11304;53.520;10.104;2022-11-20T07:14:14;13.52;;;6.70;;
22270;SDS011;11304;53.520;10.104;2022-11-20T07:16:40;8.55;;;6.78;;
22270;SDS011;11304;53.520;10.104;2022-11-20T07:19:06;10.00;;;7.13;;
22270;SDS011;11304;53.520;10.104;2022-11-20T07:21:32;11.88;;;6.25;;
22270;SDS011;11304;53.520;10.104;2022-11-20T07:23:58;9.57;;;5.93;;
22270;SDS011;11304;53.520;10.104;2022-11-20T07:26:24;7.95;;;5.40;;
22270;SDS011;11304;53.520;10.104;2022-11-20T07:28:50;8.38;;;5.93;;
22270;SDS011;11304;53.520;10.104;2022-11-20T07:31:16;6.88;;;5.22;;
22270;SDS011;11304;53.520;10.104;2022-11-20T07:33:42;9.85;;;6.03;;
22270;SDS011;11304;53.520;10.104;2022-11-20T07:36:09;8.85;;;5.63;;
22270;SDS011;11304;53.520;10.104;2022-11-20T07:38:35;6.13;;;4.85;;
22270;SDS011;11304;53.520;10.104;2022-11-20T07:41:02;7.32;;;4.97;;
22270;SDS011;11304;53.520;10.104;2022-11-20T07:43:28;9.35;;;6.22;;
22270;SDS011;11304;53.520;10.104;2022-11-20T07:45:57;8.13;;;5.75;;
22270;SDS011;11304;53.520;10.104;2022-11-20T07:48:23;10.70;;;7.03;;
22270;SDS011;11304;53.520;10.104;2022-11-20T07:50:52;12.65;;;8.52;;
22270;SDS011;11304;53.520;10.104;2022-11-20T07:53:18;10.70;;;7.80;;
22270;SDS011;11304;53.520;10.104;2022-11-20T07:55:46;11.10;;;7.67;;
22270;SDS011;11304;53.520;10.104;2022-11-20T07:58:12;13.60;;;8.52;;
22270;SDS011;11304;53.520;10.104;2022-11-20T08:00:39;14.82;;;9.95;;
22270;SDS011;11304;53.520;10.104;2022-11-20T08:03:05;13.82;;;9.18;;
22270;SDS011;11304;53.520;10.104;2022-11-20T08:05:31;12.45;;;8.55;;
22270;SDS011;11304;53.520;10.104;2022-11-20T08:07:58;15.40;;;10.05;;
22270;SDS011;11304;53.520;10.104;2022-11-20T08:10:24;15.57;;;9.25;;
22270;SDS011;11304;53.520;10.104;2022-11-20T08:12:50;14.00;;;9.68;;
22270;SDS011;11304;53.520;10.104;2022-11-20T08:15:36;12.60;;;9.15;;
22270;SDS011;11304;53.520;10.104;2022-11-20T08:18:06;12.82;;;8.88;;
22270;SDS011;11304;53.520;10.104;2022-11-20T08:20:32;11.77;;;8.48;;
22270;SDS011;11304;53.520;10.104;2022-11-20T08:23:00;12.27;;;8.00;;
22270;SDS011;11304;53.520;10.104;2022-11-20T08:25:26;11.70;;;8.75;;
22270;SDS011;11304;53.520;10.104;2022-11-20T08:27:53;13.52;;;9.48;;
22270;SDS011;11304;53.520;10.104;2022-11-20T08:30:19;12.57;;;9.82;;
22270;SDS011;11304;53.520;10.104;2022-11-20T08:32:45;11.60;;;9.60;;
22270;SDS011;11304;53.520;10.104;2022-11-20T08:35:11;12.10;;;8.77;;
22270;SDS011;11304;53.520;10.104;2022-11-20T08:37:37;11.65;;;8.55;;
22270;SDS011;11304;53.520;10.104;2022-11-20T08:40:06;10.80;;;8.10;;
22270;SDS011;11304;53.520;10.104;2022-11-20T08:42:33;10.82;;;7.50;;
22270;SDS011;11304;53.520;10.104;2022-11-20T08:44:59;9.38;;;6.78;;
22270;SDS011;11304;53.520;10.104;2022-11-20T08:47:25;7.53;;;5.75;;
22270;SDS011;11304;53.520;10.104;2022-11-20T08:49:51;7.60;;;4.72;;
22270;SDS011;11304;53.520;10.104;2022-11-20T08:52:17;7.35;;;4.80;;
22270;SDS011;11304;53.520;10.104;2022-11-20T08:54:43;8.10;;;4.95;;
22270;SDS011;11304;53.520;10.104;2022-11-20T08:57:09;6.25;;;4.15;;
22270;SDS011;11304;53.520;10.104;2022-11-20T08:59:35;6.47;;;3.13;;
22270;SDS011;11304;53.520;10.104;2022-11-20T09:02:01;8.02;;;3.75;;
22270;SDS011;11304;53.520;10.104;2022-11-20T09:04:28;2.97;;;2.40;;
22270;SDS011;11304;53.520;10.104;2022-11-20T09:06:55;4.22;;;2.60;;
22270;SDS011;11304;53.520;10.104;2022-11-20T09:09:21;5.05;;;3.00;;
22270;SDS011;11304;53.520;10.104;2022-11-20T09:11:47;3.17;;;2.58;;
22270;SDS011;11304;53.520;10.104;2022-11-20T09:14:14;3.90;;;2.20;;
22270;SDS011;11304;53.520;10.104;2022-11-20T09:16:41;3.17;;;2.22;;
22270;SDS011;11304;53.520;10.104;2022-11-20T09:19:07;3.70;;;2.72;;
22270;SDS011;11304;53.520;10.104;2022-11-20T09:21:33;3.38;;;2.65;;
22270;SDS011;11304;53.520;10.104;2022-11-20T09:23:59;3.40;;;2.70;;
22270;SDS011;11304;53.520;10.104;2022-11-20T09:26:25;4.95;;;2.72;;
22270;SDS011;11304;53.520;10.104;2022-11-20T09:28:51;3.28;;;2.30;;
22270;SDS011;11304;53.520;10.104;2022-11-20T09:31:19;3.90;;;3.00;;
22270;SDS011;11304;53.520;10.104;2022-11-20T09:33:47;4.10;;;2.63;;
22270;SDS011;11304;53.520;10.104;2022-11-20T09:36:13;3.50;;;2.40;;
22270;SDS011;11304;53.520;10.104;2022-11-20T09:38:41;4.20;;;2.70;;
22270;SDS011;11304;53.520;10.104;2022-11-20T09:41:10;3.65;;;2.75;;
22270;SDS011;11304;53.520;10.104;2022-11-20T09:56:37;5.38;;;3.45;;
22270;SDS011;11304;53.520;10.104;2022-11-20T09:59:05;5.20;;;3.57;;
22270;SDS011;11304;53.520;10.104;2022-11-20T10:01:33;4.78;;;3.40;;
22270;SDS011;11304;53.520;10.104;2022-11-20T10:06:37;6.10;;;4.18;;
22270;SDS011;11304;53.520;10.104;2022-11-20T10:11:48;5.55;;;4.18;;
22270;SDS011;11304;53.520;10.104;2022-11-20T10:17:27;4.22;;;3.03;;
22270;SDS011;11304;53.520;10.104;2022-11-20T10:22:22;3.85;;;3.08;;
22270;SDS011;11304;53.520;10.104;2022-11-20T10:30:09;4.18;;;3.33;;
22270;SDS011;11304;53.520;10.104;2022-11-20T10:32:37;6.65;;;3.80;;
22270;SDS011;11304;53.520;10.104;2022-11-20T10:35:06;3.83;;;3.40;;
22270;SDS011;11304;53.520;10.104;2022-11-20T10:37:35;4.78;;;3.28;;
22270;SDS011;11304;53.520;10.104;2022-11-20T10:42:52;4.07;;;2.72;;
22270;SDS011;11304;53.520;10.104;2022-11-20T10:48:24;3.75;;;2.92;;
22270;SDS011;11304;53.520;10.104;2022-11-20T10:53:31;3.40;;;2.80;;
22270;SDS011;11304;53.520;10.104;2022-11-20T10:56:02;4.32;;;3.30;;
22270;SDS011;11304;53.520;10.104;2022-11-20T10:58:43;4.43;;;3.17;;
22270;SDS011;11304;53.520;10.104;2022-11-20T11:01:14;6.80;;;3.38;;
22270;SDS011;11304;53.520;10.104;2022-11-20T11:03:41;4.30;;;3.63;;
22270;SDS011;11304;53.520;10.104;2022-11-20T11:06:14;4.63;;;3.20;;
22270;SDS011;11304;53.520;10.104;2022-11-20T11:08:41;4.68;;;3.60;;
22270;SDS011;11304;53.520;10.104;2022-11-20T11:11:25;3.63;;;3.10;;
22270;SDS011;11304;53.520;10.104;2022-11-20T11:13:52;4.13;;;3.10;;
22270;SDS011;11304;53.520;10.104;2022-11-20T11:16:23;5.38;;;2.90;;
22270;SDS011;11304;53.520;10.104;2022-11-20T11:18:49;5.03;;;3.40;;
22270;SDS011;11304;53.520;10.104;2022-11-20T11:21:25;4.32;;;3.00;;
22270;SDS011;11304;53.520;10.104;2022-11-20T11:23:59;3.72;;;3.08;;
22270;SDS011;11304;53.520;10.104;2022-11-20T11:26:25;5.70;;;3.67;;
22270;SDS011;11304;53.520;10.104;2022-11-20T11:28:55;3.58;;;2.88;;
22270;SDS011;11304;53.520;10.104;2022-11-20T11:31:32;4.65;;;3.00;;
22270;SDS011;11304;53.520;10.104;2022-11-20T11:34:11;4.38;;;3.00;;
22270;SDS011;11304;53.520;10.104;2022-11-20T11:36:37;4.10;;;2.90;;
22270;SDS011;11304;53.520;10.104;2022-11-20T11:39:04;3.53;;;2.78;;
22270;SDS011;11304;53.520;10.104;2022-11-20T11:41:34;5.43;;;2.88;;
22270;SDS011;11304;53.520;10.104;2022-11-20T11:44:19;3.90;;;2.63;;
22270;SDS011;11304;53.520;10.104;2022-11-20T11:47:05;3.08;;;2.40;;
22270;SDS011;11304;53.520;10.104;2022-11-20T11:49:34;3.60;;;2.90;;
22270;SDS011;11304;53.520;10.104;2022-11-20T11:52:02;3.38;;;2.97;;
22270;SDS011;11304;53.520;10.104;2022-11-20T11:56:59;3.20;;;2.30;;
22270;SDS011;11304;53.520;10.104;2022-11-20T11:59:51;3.60;;;2.55;;
22270;SDS011;11304;53.520;10.104;2022-11-20T12:04:59;4.03;;;2.67;;
22270;SDS011;11304;53.520;10.104;2022-11-20T12:07:43;3.75;;;2.70;;
22270;SDS011;11304;53.520;10.104;2022-11-20T12:10:17;4.28;;;2.72;;
22270;SDS011;11304;53.520;10.104;2022-11-20T12:12:46;5.18;;;2.55;;
22270;SDS011;11304;53.520;10.104;2022-11-20T12:15:16;8.32;;;2.80;;
22270;SDS011;11304;53.520;10.104;2022-11-20T12:17:44;3.90;;;2.40;;
22270;SDS011;11304;53.520;10.104;2022-11-20T12:20:11;3.63;;;2.80;;
22270;SDS011;11304;53.520;10.104;2022-11-20T12:25:40;4.53;;;2.97;;
22270;SDS011;11304;53.520;10.104;2022-11-20T12:28:58;3.42;;;2.33;;
22270;SDS011;11304;53.520;10.104;2022-11-20T12:50:15;2.33;;;1.52;;
22270;SDS011;11304;53.520;10.104;2022-11-20T12:52:53;2.33;;;1.70;;
22270;SDS011;11304;53.520;10.104;2022-11-20T12:55:25;2.60;;;2.05;;
22270;SDS011;11304;53.520;10.104;2022-11-20T12:58:13;3.05;;;2.05;;
22270;SDS011;11304;53.520;10.104;2022-11-20T13:00:46;2.38;;;1.80;;
22270;SDS011;11304;53.520;10.104;2022-11-20T13:03:28;2.45;;;1.90;;
22270;SDS011;11304;53.520;10.104;2022-11-20T13:06:16;3.20;;;2.10;;
22270;SDS011;11304;53.520;10.104;2022-11-20T13:08:45;4.00;;;1.90;;
22270;SDS011;11304;53.520;10.104;2022-11-20T13:11:15;2.20;;;1.55;;
22270;SDS011;11304;53.520;10.104;2022-11-20T13:19:10;3.03;;;2.08;;
22270;SDS011;11304;53.520;10.104;2022-11-20T13:21:38;2.10;;;1.75;;
22270;SDS011;11304;53.520;10.104;2022-11-20T13:24:05;4.10;;;1.95;;
22270;SDS011;11304;53.520;10.104;2022-11-20T13:26:31;2.70;;;1.88;;
22270;SDS011;11304;53.520;10.104;2022-11-20T13:29:09;2.80;;;1.88;;
22270;SDS011;11304;53.520;10.104;2022-11-20T13:31:37;2.72;;;2.20;;
22270;SDS011;11304;53.520;10.104;2022-11-20T13:34:07;2.35;;;2.08;;
22270;SDS011;11304;53.520;10.104;2022-11-20T13:36:33;2.45;;;1.95;;
22270;SDS011;11304;53.520;10.104;2022-11-20T13:39:01;3.13;;;2.30;;
22270;SDS011;11304;53.520;10.104;2022-11-20T13:41:32;2.75;;;2.10;;
22270;SDS011;11304;53.520;10.104;2022-11-20T13:44:14;2.60;;;1.90;;
22270;SDS011;11304;53.520;10.104;2022-11-20T13:46:42;2.80;;;2.40;;
22270;SDS011;11304;53.520;10.104;2022-11-20T13:49:16;3.03;;;2.10;;
22270;SDS011;11304;53.520;10.104;2022-11-20T13:51:44;3.60;;;2.33;;
22270;SDS011;11304;53.520;10.104;2022-11-20T14:01:57;2.33;;;1.92;;
22270;SDS011;11304;53.520;10.104;2022-11-20T14:04:30;2.78;;;2.00;;
22270;SDS011;11304;53.520;10.104;2022-11-20T14:06:58;3.35;;;2.10;;
22270;SDS011;11304;53.520;10.104;2022-11-20T14:09:26;3.35;;;1.98;;
22270;SDS011;11304;53.520;10.104;2022-11-20T14:11:53;3.10;;;2.15;;
22270;SDS011;11304;53.520;10.104;2022-11-20T14:14:20;2.67;;;2.22;;
22270;SDS011;11304;53.520;10.104;2022-11-20T14:16:47;2.33;;;2.05;;
22270;SDS011;11304;53.520;10.104;2022-11-20T14:21:46;3.13;;;2.05;;
22270;SDS011;11304;53.520;10.104;2022-11-20T14:24:12;5.68;;;2.05;;
22270;SDS011;11304;53.520;10.104;2022-11-20T14:26:42;2.80;;;2.08;;
22270;SDS011;11304;53.520;10.104;2022-11-20T14:29:13;2.58;;;1.95;;
22270;SDS011;11304;53.520;10.104;2022-11-20T14:31:40;3.28;;;2.38;;
22270;SDS011;11304;53.520;10.104;2022-11-20T14:34:10;3.83;;;1.90;;
22270;SDS011;11304;53.520;10.104;2022-11-20T14:36:38;3.58;;;2.15;;
22270;SDS011;11304;53.520;10.104;2022-11-20T14:39:05;2.63;;;2.00;;
22270;SDS011;11304;53.520;10.104;2022-11-20T14:41:31;3.13;;;2.33;;
22270;SDS011;11304;53.520;10.104;2022-11-20T14:43:57;3.83;;;1.92;;
22270;SDS011;11304;53.520;10.104;2022-11-20T14:46:24;2.53;;;1.88;;
22270;SDS011;11304;53.520;10.104;2022-11-20T14:48:51;2.92;;;2.30;;
22270;SDS011;11304;53.520;10.104;2022-11-20T14:51:38;2.95;;;1.88;;
22270;SDS011;11304;53.520;10.104;2022-11-20T14:54:15;3.47;;;2.13;;
22270;SDS011;11304;53.520;10.104;2022-11-20T14:56:42;3.83;;;2.30;;
22270;SDS011;11304;53.520;10.104;2022-11-20T14:59:22;4.13;;;2.38;;
22270;SDS011;11304;53.520;10.104;2022-11-20T16:08:52;4.88;;;3.38;;
22270;SDS011;11304;53.520;10.104;2022-11-20T18:53:29;17.13;;;12.13;;
22270;SDS011;11304;53.520;10.104;2022-11-20T18:55:55;15.95;;;12.05;;
22270;SDS011;11304;53.520;10.104;2022-11-20T18:58:21;20.63;;;14.02;;
22270;SDS011;11304;53.520;10.104;2022-11-20T19:00:48;23.35;;;14.43;;
22270;SDS011;11304;53.520;10.104;2022-11-20T19:03:14;21.55;;;14.98;;
22270;SDS011;11304;53.520;10.104;2022-11-20T19:05:40;24.58;;;16.00;;
22270;SDS011;11304;53.520;10.104;2022-11-20T19:08:06;20.92;;;15.05;;
22270;SDS011;11304;53.520;10.104;2022-11-20T19:10:32;20.40;;;14.15;;
22270;SDS011;11304;53.520;10.104;2022-11-20T19:12:58;20.85;;;14.98;;
22270;SDS011;11304;53.520;10.104;2022-11-20T19:15:25;25.70;;;17.02;;
22270;SDS011;11304;53.520;10.104;2022-11-20T19:17:51;26.95;;;16.83;;
22270;SDS011;11304;53.520;10.104;2022-11-20T19:20:17;22.05;;;15.73;;
22270;SDS011;11304;53.520;10.104;2022-11-20T19:22:44;25.95;;;16.60;;
22270;SDS011;11304;53.520;10.104;2022-11-20T19:25:14;25.33;;;16.80;;
22270;SDS011;11304;53.520;10.104;2022-11-20T19:27:40;22.60;;;15.55;;
22270;SDS011;11304;53.520;10.104;2022-11-20T19:30:08;23.40;;;15.88;;
22270;SDS011;11304;53.520;10.104;2022-11-20T19:32:34;18.55;;;12.63;;
22270;SDS011;11304;53.520;10.104;2022-11-20T19:35:00;23.60;;;16.20;;
22270;SDS011;11304;53.520;10.104;2022-11-20T19:37:27;24.15;;;16.52;;
22270;SDS011;11304;53.520;10.104;2022-11-20T19:39:53;25.48;;;17.40;;
22270;SDS011;11304;53.520;10.104;2022-11-20T19:42:22;22.48;;;16.65;;
22270;SDS011;11304;53.520;10.104;2022-11-20T19:44:49;21.05;;;15.48;;
22270;SDS011;11304;53.520;10.104;2022-11-20T19:47:15;23.17;;;16.85;;
22270;SDS011;11304;53.520;10.104;2022-11-20T19:49:41;22.60;;;16.50;;
22270;SDS011;11304;53.520;10.104;2022-11-20T19:52:07;23.33;;;16.45;;